Time;durP1;ratioP1;P1;durP2;ratioP2;P2;SDS_P1;SDS_P2;PMS_P1;PMS_P2;Temp;Humidity;BMP_temperature;BMP_pressure;BME280_temperature;BME280_humidity;BME280_pressure;Samples;Min_cycle;Max_cycle;Signal;HPM_P1;HPM_P2
2023/07/28 00:01:38;;;;;;;1.00;0.57;;;21.20;63.20;;;;;;5052877;28;20967;-68
2023/07/28 00:04:10;;;;;;;1.40;0.90;;;21.20;63.60;;;;;;5050656;28;20485;-68
2023/07/28 00:06:38;;;;;;;4.53;0.80;;;21.20;63.80;;;;;;5048461;28;20453;-68
2023/07/28 00:09:07;;;;;;;1.50;0.70;;;21.20;63.40;;;;;;5046954;28;20879;-67
2023/07/28 00:11:36;;;;;;;1.00;0.60;;;21.20;63.30;;;;;;5054582;28;20450;-68
2023/07/28 00:14:04;;;;;;;1.50;0.80;;;21.20;63.00;;;;;;5048274;28;20817;-68
2023/07/28 00:16:34;;;;;;;1.00;0.60;;;21.20;63.10;;;;;;5055089;28;20561;-68
2023/07/28 00:19:05;;;;;;;1.47;0.70;;;21.20;63.00;;;;;;5049722;28;20471;-69
2023/07/28 00:21:33;;;;;;;1.20;0.80;;;21.20;63.00;;;;;;5053418;28;20439;-68
2023/07/28 00:24:02;;;;;;;1.27;0.63;;;21.20;63.40;;;;;;5052707;28;20563;-69
2023/07/28 00:26:30;;;;;;;1.23;0.60;;;21.20;63.30;;;;;;5055363;28;20666;-68
2023/07/28 00:28:59;;;;;;;1.03;0.70;;;21.20;63.20;;;;;;5054301;28;20471;-69
2023/07/28 00:31:27;;;;;;;1.37;0.80;;;21.20;63.40;;;;;;5054551;28;20962;-68
2023/07/28 00:33:56;;;;;;;1.10;0.70;;;21.20;63.00;;;;;;5056581;28;21120;-68
2023/07/28 00:36:25;;;;;;;1.20;0.63;;;21.20;63.00;;;;;;5054480;28;20454;-68
2023/07/28 00:38:54;;;;;;;1.60;0.77;;;21.20;62.90;;;;;;5067259;28;20766;-68
2023/07/28 00:41:23;;;;;;;1.40;0.70;;;21.20;62.70;;;;;;5066875;28;20450;-68
2023/07/28 00:43:52;;;;;;;2.00;0.80;;;21.20;63.10;;;;;;5050973;28;20467;-67
2023/07/28 00:46:21;;;;;;;1.80;0.50;;;21.20;63.10;;;;;;5060056;28;20446;-68
2023/07/28 00:48:50;;;;;;;1.37;0.70;;;21.20;63.30;;;;;;5051851;28;20972;-68
2023/07/28 00:51:18;;;;;;;1.90;0.70;;;21.20;62.80;;;;;;5054580;28;20435;-68
2023/07/28 00:53:49;;;;;;;1.20;0.60;;;21.20;63.30;;;;;;5056509;28;20465;-67
2023/07/28 00:56:19;;;;;;;1.30;0.70;;;21.20;63.20;;;;;;5058860;28;20443;-69
2023/07/28 00:58:47;;;;;;;1.20;0.70;;;21.20;63.10;;;;;;5052371;28;20561;-68
2023/07/28 01:01:15;;;;;;;1.20;0.60;;;21.20;62.90;;;;;;5059373;28;20503;-68
2023/07/28 01:03:44;;;;;;;1.20;0.60;;;21.20;62.60;;;;;;5050366;28;20522;-68
2023/07/28 01:06:19;;;;;;;0.97;0.53;;;21.20;63.00;;;;;;5058004;28;20435;-68
2023/07/28 01:08:55;;;;;;;1.00;0.60;;;21.20;63.10;;;;;;5056869;28;20848;-68
2023/07/28 01:11:24;;;;;;;0.90;0.60;;;21.10;62.50;;;;;;5068505;28;20522;-68
2023/07/28 01:13:52;;;;;;;2.13;0.63;;;21.20;62.40;;;;;;5059587;28;20548;-67
2023/07/28 01:16:21;;;;;;;1.30;0.70;;;21.20;62.70;;;;;;5055788;28;21157;-68
2023/07/28 01:18:50;;;;;;;1.07;0.60;;;21.20;62.90;;;;;;5053799;28;20473;-68
2023/07/28 01:21:22;;;;;;;1.20;0.70;;;21.20;62.50;;;;;;5055716;28;20450;-69
2023/07/28 01:24:02;;;;;;;1.07;0.50;;;21.10;62.40;;;;;;5049023;28;20474;-68
2023/07/28 01:26:36;;;;;;;0.90;0.50;;;21.10;62.50;;;;;;5088479;28;20462;-68
2023/07/28 01:29:06;;;;;;;1.10;0.60;;;21.20;62.90;;;;;;5074067;28;20469;-67
2023/07/28 01:31:35;;;;;;;1.40;0.90;;;21.10;62.60;;;;;;5056893;28;20446;-68
2023/07/28 01:34:03;;;;;;;1.30;0.60;;;21.20;63.10;;;;;;5069359;28;20565;-68
2023/07/28 01:36:32;;;;;;;0.90;0.40;;;21.10;62.60;;;;;;5055714;28;20460;-68
2023/07/28 01:39:06;;;;;;;1.40;0.87;;;21.10;62.90;;;;;;5051887;28;20929;-67
2023/07/28 01:41:36;;;;;;;1.40;0.70;;;21.10;62.60;;;;;;5065761;28;20456;-68
2023/07/28 01:44:05;;;;;;;1.10;0.53;;;21.10;62.90;;;;;;5059330;28;20551;-69
2023/07/28 01:46:33;;;;;;;1.20;0.60;;;21.10;62.50;;;;;;5060213;28;20567;-68
2023/07/28 01:49:02;;;;;;;1.87;0.93;;;21.20;63.10;;;;;;5053866;28;21000;-68
2023/07/28 01:51:31;;;;;;;1.63;0.67;;;21.10;62.40;;;;;;5061084;28;20434;-68
2023/07/28 01:53:59;;;;;;;1.10;0.70;;;21.10;62.60;;;;;;5057450;28;21002;-69
2023/07/28 01:56:27;;;;;;;1.10;0.60;;;21.10;62.40;;;;;;5086488;28;20533;-68
2023/07/28 01:58:57;;;;;;;1.10;0.60;;;21.10;62.80;;;;;;5059769;28;20469;-68
2023/07/28 02:01:25;;;;;;;1.27;0.60;;;21.10;62.40;;;;;;5060817;28;20527;-68
2023/07/28 02:03:54;;;;;;;1.03;0.60;;;21.10;62.60;;;;;;5059699;28;20580;-68
2023/07/28 02:06:22;;;;;;;2.00;0.77;;;21.10;62.30;;;;;;5055440;28;20489;-68
2023/07/28 02:08:51;;;;;;;1.40;0.77;;;21.10;62.50;;;;;;5058256;28;20463;-69
2023/07/28 02:11:19;;;;;;;1.10;0.60;;;21.10;62.30;;;;;;5061261;28;20493;-68
2023/07/28 02:13:48;;;;;;;1.60;0.80;;;21.10;63.00;;;;;;5061090;28;20874;-67
2023/07/28 02:16:19;;;;;;;1.20;0.60;;;21.10;62.60;;;;;;5059416;28;20481;-68
2023/07/28 02:18:48;;;;;;;2.07;0.80;;;21.10;62.90;;;;;;5060851;28;20467;-68
2023/07/28 02:21:17;;;;;;;1.00;0.60;;;21.10;63.00;;;;;;5055366;28;20458;-68
2023/07/28 02:23:45;;;;;;;1.30;0.87;;;21.10;63.00;;;;;;5076695;28;21047;-68
2023/07/28 02:26:14;;;;;;;1.77;0.50;;;21.10;63.30;;;;;;5061011;28;20438;-68
2023/07/28 02:28:42;;;;;;;1.10;0.70;;;21.10;63.10;;;;;;5059181;28;20463;-67
2023/07/28 02:31:11;;;;;;;1.13;0.70;;;21.10;63.60;;;;;;5054422;28;20806;-69
2023/07/28 02:33:41;;;;;;;1.60;0.97;;;21.10;63.50;;;;;;5071209;28;20492;-68
2023/07/28 02:36:09;;;;;;;1.30;0.70;;;21.10;63.60;;;;;;5058183;28;20476;-68
2023/07/28 02:38:38;;;;;;;1.47;0.73;;;21.10;63.40;;;;;;5063544;28;20463;-67
2023/07/28 02:41:07;;;;;;;1.10;0.70;;;21.10;63.30;;;;;;5058140;28;20788;-68
2023/07/28 02:43:35;;;;;;;1.60;0.80;;;21.10;63.40;;;;;;5060581;28;20469;-68
2023/07/28 02:46:04;;;;;;;0.93;0.50;;;21.10;63.60;;;;;;5058013;28;20427;-68
2023/07/28 02:48:32;;;;;;;1.20;0.70;;;21.10;63.00;;;;;;5056942;28;20479;-68
2023/07/28 02:51:02;;;;;;;1.73;0.87;;;21.10;63.10;;;;;;5063363;28;20791;-67
2023/07/28 02:53:30;;;;;;;1.30;0.70;;;21.10;63.10;;;;;;5065578;28;20457;-67
2023/07/28 02:55:59;;;;;;;1.10;0.60;;;21.10;63.60;;;;;;5058888;28;20477;-67
2023/07/28 02:58:27;;;;;;;1.17;0.60;;;21.00;62.70;;;;;;5061785;28;20979;-68
2023/07/28 03:00:55;;;;;;;1.40;0.80;;;21.00;62.30;;;;;;5065391;28;20522;-68
2023/07/28 03:03:32;;;;;;;1.10;0.60;;;21.00;62.60;;;;;;5055976;28;20486;-68
2023/07/28 03:06:02;;;;;;;1.30;0.90;;;21.00;63.00;;;;;;5045287;28;20931;-68
2023/07/28 03:08:31;;;;;;;1.50;0.77;;;21.10;63.20;;;;;;5056676;28;20451;-68
2023/07/28 03:11:20;;;;;;;1.83;0.83;;;21.00;63.50;;;;;;5049364;28;20476;-68
2023/07/28 03:13:49;;;;;;;1.40;0.80;;;21.00;63.30;;;;;;5065473;28;21008;-68
2023/07/28 03:16:17;;;;;;;1.53;0.83;;;21.00;63.40;;;;;;5061172;28;20457;-68
2023/07/28 03:18:47;;;;;;;1.40;0.70;;;21.00;63.10;;;;;;5057750;28;20490;-68
2023/07/28 03:21:17;;;;;;;1.07;0.50;;;21.00;64.00;;;;;;5074152;28;20438;-68
2023/07/28 03:23:46;;;;;;;1.30;0.70;;;21.00;63.00;;;;;;5056260;28;21012;-68
2023/07/28 03:26:15;;;;;;;1.37;0.77;;;21.00;63.50;;;;;;5051769;28;20438;-68
2023/07/28 03:28:43;;;;;;;0.90;0.50;;;21.00;63.00;;;;;;5054249;28;20471;-68
2023/07/28 03:31:11;;;;;;;1.43;0.87;;;21.00;63.70;;;;;;5061735;28;20434;-66
2023/07/28 03:33:40;;;;;;;1.00;0.57;;;21.00;62.90;;;;;;5056136;28;20472;-67
2023/07/28 03:36:09;;;;;;;1.40;0.73;;;21.00;63.80;;;;;;5071551;28;20474;-67
2023/07/28 03:38:39;;;;;;;1.13;0.53;;;21.00;63.60;;;;;;5049606;28;20461;-68
2023/07/28 03:41:09;;;;;;;1.30;0.83;;;21.00;63.50;;;;;;5052144;28;21078;-67
2023/07/28 03:43:38;;;;;;;0.90;0.50;;;21.00;62.90;;;;;;5050176;28;20459;-68
2023/07/28 03:46:06;;;;;;;1.20;0.70;;;21.00;63.50;;;;;;5056022;28;20421;-68
2023/07/28 03:48:35;;;;;;;1.43;0.90;;;21.00;64.20;;;;;;5057275;28;20489;-68
2023/07/28 03:51:03;;;;;;;0.90;0.57;;;21.00;63.70;;;;;;5067233;28;21465;-68
2023/07/28 03:53:31;;;;;;;1.17;0.60;;;21.00;63.60;;;;;;5065180;28;20486;-68
2023/07/28 03:56:03;;;;;;;1.33;0.70;;;21.00;63.50;;;;;;5052663;28;20552;-68
2023/07/28 03:58:32;;;;;;;1.30;0.60;;;21.00;64.00;;;;;;5058191;28;20462;-68
2023/07/28 04:01:00;;;;;;;1.10;0.73;;;21.00;63.30;;;;;;5059051;28;20445;-68
2023/07/28 04:03:29;;;;;;;1.10;0.70;;;21.00;64.00;;;;;;5049142;28;20482;-67
2023/07/28 04:05:57;;;;;;;0.90;0.50;;;21.00;63.90;;;;;;5062937;28;20832;-68
2023/07/28 04:08:26;;;;;;;1.47;0.63;;;21.00;63.20;;;;;;5076674;28;20447;-69
2023/07/28 04:10:54;;;;;;;1.20;0.60;;;21.00;62.90;;;;;;5067836;28;20443;-68
2023/07/28 04:13:24;;;;;;;1.27;0.60;;;21.00;63.20;;;;;;5067343;28;20557;-67
2023/07/28 04:15:52;;;;;;;0.97;0.50;;;21.00;64.10;;;;;;5055113;28;20797;-68
2023/07/28 04:18:21;;;;;;;1.60;0.60;;;21.00;63.90;;;;;;5049349;28;20453;-69
2023/07/28 04:20:49;;;;;;;1.00;0.50;;;21.00;63.80;;;;;;5057062;28;20835;-67
2023/07/28 04:23:18;;;;;;;0.97;0.50;;;20.90;63.60;;;;;;5083648;28;20422;-67
2023/07/28 04:25:46;;;;;;;1.03;0.53;;;20.90;64.70;;;;;;5048160;28;20447;-68
2023/07/28 04:28:14;;;;;;;1.10;0.60;;;21.00;64.80;;;;;;5061659;28;20842;-69
2023/07/28 04:30:44;;;;;;;1.00;0.50;;;21.00;63.70;;;;;;5081285;28;20434;-68
2023/07/28 04:33:29;;;;;;;1.37;0.60;;;21.00;63.10;;;;;;5078242;28;20474;-68
2023/07/28 04:36:00;;;;;;;1.10;0.60;;;20.90;64.10;;;;;;5041526;28;20471;-68
2023/07/28 04:38:34;;;;;;;1.00;0.50;;;20.90;64.70;;;;;;5064065;28;20480;-68
2023/07/28 04:41:03;;;;;;;0.90;0.43;;;20.90;63.60;;;;;;5059330;28;20458;-67
2023/07/28 04:43:53;;;;;;;3.63;0.67;;;20.90;64.70;;;;;;5052916;28;20471;-67
2023/07/28 04:46:25;;;;;;;1.10;0.70;;;20.90;63.80;;;;;;5060030;28;20720;-67
2023/07/28 04:48:58;;;;;;;1.00;0.60;;;20.90;64.70;;;;;;5054404;28;20905;-67
2023/07/28 04:51:45;;;;;;;1.00;0.40;;;20.90;64.20;;;;;;5052666;28;20442;-67
2023/07/28 04:54:32;;;;;;;1.10;0.60;;;20.90;64.70;;;;;;5047895;28;20940;-68
2023/07/28 04:57:00;;;;;;;0.93;0.40;;;20.90;64.10;;;;;;5050594;28;20826;-68
2023/07/28 04:59:33;;;;;;;1.10;0.40;;;20.90;64.20;;;;;;5050905;28;20559;-67
2023/07/28 05:02:04;;;;;;;1.00;0.50;;;20.90;64.70;;;;;;5050839;28;20485;-67
2023/07/28 05:04:32;;;;;;;1.57;0.60;;;20.90;64.70;;;;;;5047706;28;20462;-69
2023/07/28 05:07:01;;;;;;;2.90;0.50;;;20.90;64.10;;;;;;5057559;28;20543;-67
2023/07/28 05:09:30;;;;;;;2.80;0.40;;;20.90;64.70;;;;;;5064031;28;20475;-69
2023/07/28 05:11:59;;;;;;;1.30;0.80;;;20.90;64.70;;;;;;5068720;28;20880;-67
2023/07/28 05:14:29;;;;;;;1.10;0.40;;;20.90;64.70;;;;;;5071731;28;20564;-68
2023/07/28 05:16:58;;;;;;;1.40;0.70;;;20.90;64.70;;;;;;5069411;28;20463;-69
2023/07/28 05:19:39;;;;;;;1.33;0.60;;;20.90;64.70;;;;;;5038592;28;20451;-68
2023/07/28 05:22:30;;;;;;;1.33;0.70;;;20.90;64.80;;;;;;5039588;28;20502;-66
2023/07/28 05:24:59;;;;;;;1.00;0.70;;;20.90;64.70;;;;;;5044133;28;20469;-68
2023/07/28 05:27:30;;;;;;;3.10;0.60;;;20.90;64.30;;;;;;5047107;28;20471;-67
2023/07/28 05:29:59;;;;;;;3.43;0.60;;;20.90;64.20;;;;;;5059388;28;20423;-67
2023/07/28 05:32:27;;;;;;;1.33;0.50;;;20.90;64.70;;;;;;5050594;28;20467;-68
2023/07/28 05:35:16;;;;;;;1.27;0.50;;;20.90;64.70;;;;;;5044762;28;20462;-68
2023/07/28 05:37:44;;;;;;;1.00;0.50;;;20.90;64.70;;;;;;5052156;28;20474;-68
2023/07/28 05:40:13;;;;;;;1.00;0.60;;;20.90;64.70;;;;;;5034165;28;20532;-67
2023/07/28 05:42:42;;;;;;;1.37;0.50;;;20.90;63.70;;;;;;5039340;28;20530;-68
2023/07/28 05:45:11;;;;;;;0.90;0.40;;;20.90;63.90;;;;;;5051907;28;20463;-67
2023/07/28 05:47:40;;;;;;;1.17;0.60;;;20.90;64.70;;;;;;5041605;28;20458;-67
2023/07/28 05:50:09;;;;;;;0.93;0.50;;;20.90;63.90;;;;;;5035032;28;20455;-67
2023/07/28 05:52:39;;;;;;;1.10;0.60;;;20.90;64.70;;;;;;5034510;28;20442;-68
2023/07/28 05:55:09;;;;;;;1.13;0.60;;;20.90;64.70;;;;;;5045192;28;20464;-67
2023/07/28 05:57:38;;;;;;;0.90;0.50;;;20.90;64.70;;;;;;5033048;28;20477;-68
2023/07/28 06:00:10;;;;;;;1.07;0.50;;;20.90;64.70;;;;;;5032631;28;20960;-68
2023/07/28 06:02:41;;;;;;;1.07;0.40;;;20.90;64.70;;;;;;5036105;28;20534;-68
2023/07/28 06:05:17;;;;;;;1.00;0.50;;;20.90;64.70;;;;;;5028665;28;20492;-67
2023/07/28 06:07:48;;;;;;;1.00;0.50;;;20.80;64.70;;;;;;5040793;28;20819;-66
2023/07/28 06:10:16;;;;;;;1.03;0.53;;;20.90;64.70;;;;;;5039393;28;20454;-67
2023/07/28 06:12:44;;;;;;;1.67;0.63;;;20.90;64.70;;;;;;5054676;28;20461;-66
2023/07/28 06:15:13;;;;;;;1.00;0.50;;;20.90;64.70;;;;;;5034700;28;20463;-68
2023/07/28 06:17:42;;;;;;;1.00;0.50;;;20.90;64.70;;;;;;5038935;28;20480;-67
2023/07/28 06:20:11;;;;;;;0.90;0.40;;;20.90;64.70;;;;;;5036601;28;20530;-67
2023/07/28 06:22:41;;;;;;;1.13;0.50;;;20.90;64.70;;;;;;5037480;28;20850;-67
2023/07/28 06:25:11;;;;;;;0.90;0.50;;;20.80;64.60;;;;;;5039326;28;20478;-69
2023/07/28 06:27:40;;;;;;;2.10;1.37;;;20.80;64.60;;;;;;5042629;28;20451;-68
2023/07/28 06:30:09;;;;;;;1.10;0.60;;;20.80;64.10;;;;;;5038509;28;20522;-68
2023/07/28 06:32:38;;;;;;;1.20;0.80;;;20.80;64.60;;;;;;5030387;28;20452;-68
2023/07/28 06:35:09;;;;;;;1.07;0.60;;;20.80;64.70;;;;;;5060306;28;20538;-68
2023/07/28 06:37:38;;;;;;;2.47;0.90;;;20.80;64.60;;;;;;5043961;28;20462;-68
2023/07/28 06:40:10;;;;;;;1.47;0.60;;;20.80;64.60;;;;;;5039081;28;20450;-68
2023/07/28 06:42:38;;;;;;;1.43;0.80;;;20.90;64.70;;;;;;5038682;28;20452;-68
2023/07/28 06:45:08;;;;;;;1.23;0.80;;;20.80;64.60;;;;;;5039489;28;20524;-68
2023/07/28 06:47:37;;;;;;;1.63;0.70;;;20.80;64.60;;;;;;5048171;28;21046;-68
2023/07/28 06:50:06;;;;;;;1.20;0.70;;;20.80;64.60;;;;;;5052376;28;20443;-68
2023/07/28 06:52:35;;;;;;;1.57;0.60;;;20.80;64.60;;;;;;5034417;28;20451;-68
2023/07/28 06:55:04;;;;;;;1.20;0.70;;;20.80;64.70;;;;;;5039571;28;20458;-67
2023/07/28 06:57:36;;;;;;;1.40;0.70;;;20.80;64.60;;;;;;5029133;28;20576;-68
2023/07/28 07:00:09;;;;;;;2.53;1.07;;;20.90;64.70;;;;;;5031317;28;20449;-68
2023/07/28 07:02:38;;;;;;;1.43;0.70;;;20.90;65.40;;;;;;5044893;28;20439;-68
2023/07/28 07:05:08;;;;;;;1.30;0.60;;;20.80;64.70;;;;;;5042229;28;20458;-68
2023/07/28 07:07:37;;;;;;;1.30;0.60;;;20.80;65.60;;;;;;5028133;28;20469;-67
2023/07/28 07:10:07;;;;;;;1.57;0.63;;;20.80;64.70;;;;;;5043387;28;20461;-67
2023/07/28 07:12:37;;;;;;;1.10;0.60;;;20.80;64.70;;;;;;5038983;28;20456;-67
2023/07/28 07:15:08;;;;;;;1.20;0.77;;;20.80;64.70;;;;;;5034766;28;20472;-68
2023/07/28 07:17:36;;;;;;;1.20;0.67;;;20.80;65.70;;;;;;5033794;28;20470;-68
2023/07/28 07:20:06;;;;;;;1.00;0.40;;;20.80;65.40;;;;;;5030942;28;20448;-69
2023/07/28 07:22:35;;;;;;;1.97;1.00;;;20.80;64.60;;;;;;5041317;28;20461;-67
2023/07/28 07:25:03;;;;;;;1.17;0.70;;;20.80;64.70;;;;;;5028674;28;20823;-68
2023/07/28 07:27:32;;;;;;;1.90;0.83;;;20.80;65.90;;;;;;5036389;28;20785;-69
2023/07/28 07:30:04;;;;;;;1.50;0.70;;;20.80;65.90;;;;;;5038805;28;20488;-68
2023/07/28 07:32:34;;;;;;;1.00;0.50;;;20.80;64.70;;;;;;5032739;28;20516;-68
2023/07/28 07:35:03;;;;;;;1.10;0.60;;;20.80;65.10;;;;;;5034441;28;20902;-67
2023/07/28 07:37:32;;;;;;;1.23;0.70;;;20.80;65.10;;;;;;5056273;28;20455;-66
2023/07/28 07:40:01;;;;;;;1.30;0.80;;;20.80;65.00;;;;;;5022778;28;20937;-66
2023/07/28 07:42:41;;;;;;;2.07;0.70;;;20.80;66.30;;;;;;5049303;28;20328;-67
2023/07/28 07:45:12;;;;;;;2.27;0.77;;;20.80;66.30;;;;;;5037173;28;20470;-68
2023/07/28 07:47:41;;;;;;;2.23;0.70;;;20.80;64.60;;;;;;5051718;28;20458;-65
2023/07/28 07:50:11;;;;;;;1.37;0.63;;;20.80;64.20;;;;;;5037180;28;20455;-68
2023/07/28 07:52:40;;;;;;;2.43;0.70;;;20.80;64.60;;;;;;5040427;28;20439;-66
2023/07/28 07:55:11;;;;;;;1.27;0.60;;;20.90;63.80;;;;;;5039979;28;20494;-68
2023/07/28 07:57:40;;;;;;;1.20;0.70;;;20.80;64.20;;;;;;5049424;28;20625;-68
2023/07/28 08:00:11;;;;;;;1.33;0.80;;;20.80;63.50;;;;;;5049300;28;20509;-67
2023/07/28 08:02:40;;;;;;;1.47;0.80;;;20.80;63.60;;;;;;5055571;28;20446;-66
2023/07/28 08:05:12;;;;;;;1.10;0.67;;;20.80;63.40;;;;;;5048011;28;20844;-67
2023/07/28 08:07:40;;;;;;;1.63;0.70;;;20.80;63.20;;;;;;5036273;28;20811;-67
2023/07/28 08:10:09;;;;;;;1.70;0.67;;;20.80;63.40;;;;;;5034963;28;20502;-67
2023/07/28 08:12:38;;;;;;;1.63;0.60;;;20.80;63.00;;;;;;5029430;28;20461;-68
2023/07/28 08:15:07;;;;;;;1.00;0.50;;;20.80;64.10;;;;;;5039509;28;20466;-69
2023/07/28 08:17:37;;;;;;;1.80;0.60;;;20.80;63.50;;;;;;5038204;28;20518;-67
2023/07/28 08:20:07;;;;;;;1.07;0.60;;;20.80;63.50;;;;;;5022314;28;20455;-69
2023/07/28 08:22:35;;;;;;;1.03;0.70;;;20.90;64.40;;;;;;5022001;28;20464;-68
2023/07/28 08:25:04;;;;;;;1.30;0.90;;;20.90;63.70;;;;;;5076505;28;20497;-68
2023/07/28 08:27:33;;;;;;;1.30;0.77;;;20.90;64.30;;;;;;5069431;28;20488;-68
2023/07/28 08:30:01;;;;;;;0.97;0.50;;;20.90;63.70;;;;;;5092352;28;20450;-68
2023/07/28 08:32:30;;;;;;;1.47;0.80;;;20.90;63.30;;;;;;5067911;28;20803;-68
2023/07/28 08:35:00;;;;;;;1.73;0.70;;;20.90;63.30;;;;;;5084734;28;20469;-69
2023/07/28 08:37:29;;;;;;;1.20;0.73;;;20.90;63.10;;;;;;5049940;28;20454;-68
2023/07/28 08:39:58;;;;;;;1.10;0.60;;;20.90;63.10;;;;;;5086087;28;20447;-68
2023/07/28 08:42:27;;;;;;;1.10;0.60;;;20.90;63.10;;;;;;5064012;28;20444;-67
2023/07/28 08:44:55;;;;;;;1.53;1.00;;;20.90;63.20;;;;;;5059719;28;20460;-69
2023/07/28 08:47:24;;;;;;;1.30;0.70;;;21.00;63.00;;;;;;5087410;28;20445;-68
2023/07/28 08:49:52;;;;;;;1.00;0.53;;;20.90;62.90;;;;;;5068818;28;20441;-68
2023/07/28 08:52:22;;;;;;;1.90;1.10;;;21.00;62.50;;;;;;5061975;28;20939;-68
2023/07/28 08:54:52;;;;;;;2.00;0.83;;;20.90;62.70;;;;;;5087641;28;20454;-68
2023/07/28 08:57:21;;;;;;;1.30;0.70;;;21.00;62.60;;;;;;5056844;28;20527;-68
2023/07/28 08:59:50;;;;;;;1.67;0.80;;;20.90;62.60;;;;;;5073105;28;20476;-69
2023/07/28 09:02:19;;;;;;;1.30;0.97;;;21.00;62.80;;;;;;5053543;28;20508;-68
2023/07/28 09:04:49;;;;;;;1.67;0.70;;;21.00;64.00;;;;;;5076067;28;20964;-68
2023/07/28 09:07:17;;;;;;;1.40;0.70;;;20.90;62.90;;;;;;5075922;28;20509;-67
2023/07/28 09:09:47;;;;;;;1.33;0.63;;;20.90;62.50;;;;;;5069935;28;20441;-69
2023/07/28 09:12:16;;;;;;;1.10;0.60;;;20.90;62.60;;;;;;5089707;28;20438;-68
2023/07/28 09:14:45;;;;;;;1.57;0.63;;;21.00;63.10;;;;;;5054033;28;20473;-68
2023/07/28 09:17:14;;;;;;;1.37;0.80;;;21.00;62.80;;;;;;5077044;28;20468;-68
2023/07/28 09:19:53;;;;;;;1.20;0.60;;;21.00;62.60;;;;;;5057991;28;20504;-68
2023/07/28 09:22:21;;;;;;;1.10;0.67;;;21.00;62.40;;;;;;5099262;28;20694;-68
2023/07/28 09:24:52;;;;;;;1.40;0.50;;;21.00;64.10;;;;;;5068237;28;20475;-67
2023/07/28 09:27:22;;;;;;;1.00;0.50;;;21.00;62.60;;;;;;5055336;28;20453;-67
2023/07/28 09:29:51;;;;;;;1.20;0.70;;;21.00;62.50;;;;;;5073186;28;20449;-67
2023/07/28 09:32:30;;;;;;;1.30;0.70;;;21.00;62.50;;;;;;5055745;28;20461;-68
2023/07/28 09:35:09;;;;;;;1.60;0.90;;;21.00;62.80;;;;;;5081502;28;20435;-68
2023/07/28 09:37:40;;;;;;;1.20;0.90;;;21.00;62.60;;;;;;5069017;28;20486;-66
2023/07/28 09:40:12;;;;;;;1.03;0.53;;;21.00;62.60;;;;;;5079471;28;20476;-67
2023/07/28 09:42:41;;;;;;;1.40;0.80;;;21.00;62.40;;;;;;5070979;28;20440;-67
2023/07/28 09:45:10;;;;;;;1.10;0.60;;;21.00;62.40;;;;;;5054813;28;20464;-66
2023/07/28 09:47:59;;;;;;;1.40;0.70;;;21.00;62.60;;;;;;5068235;28;20543;-66
2023/07/28 09:50:30;;;;;;;1.67;0.67;;;21.00;62.50;;;;;;5049819;28;20483;-66
2023/07/28 09:53:04;;;;;;;1.00;0.50;;;21.00;62.70;;;;;;5075072;28;20532;-68
2023/07/28 09:55:36;;;;;;;1.10;0.60;;;21.00;62.90;;;;;;5066749;28;20476;-68
2023/07/28 09:58:07;;;;;;;1.50;0.90;;;21.00;62.70;;;;;;5064555;28;20481;-67
2023/07/28 10:00:36;;;;;;;0.90;0.60;;;21.00;63.00;;;;;;5059940;28;20498;-67
2023/07/28 10:03:06;;;;;;;1.47;0.60;;;21.00;63.10;;;;;;5065762;28;21065;-67
2023/07/28 10:05:35;;;;;;;1.20;0.70;;;21.00;63.60;;;;;;5080946;28;20981;-68
2023/07/28 10:08:05;;;;;;;1.30;0.90;;;21.00;64.30;;;;;;5085179;28;20449;-67
2023/07/28 10:10:36;;;;;;;1.03;0.50;;;21.00;62.60;;;;;;5086124;28;20991;-68
2023/07/28 10:13:05;;;;;;;1.67;0.63;;;21.00;62.80;;;;;;5079800;28;22426;-68
2023/07/28 10:15:34;;;;;;;1.60;0.87;;;21.00;62.90;;;;;;5085006;28;20484;-68
2023/07/28 11:33:56;;;;;;;0.90;0.50;;;21.00;62.60;;;;;;5076183;28;21001;-67
2023/07/28 11:36:25;;;;;;;1.20;0.70;;;21.00;63.00;;;;;;5067393;28;20495;-67
2023/07/28 11:38:58;;;;;;;1.10;0.50;;;21.00;62.70;;;;;;5057193;28;20475;-68
2023/07/28 11:41:30;;;;;;;1.40;0.57;;;21.00;62.30;;;;;;5064696;28;20495;-69
2023/07/28 11:44:26;;;;;;;1.00;0.50;;;21.10;63.30;;;;;;5055070;28;20503;-69
2023/07/28 11:46:59;;;;;;;2.07;1.03;;;21.10;63.10;;;;;;5052121;28;20496;-71
2023/07/28 11:52:42;;;;;;;2.00;0.93;;;21.50;78.60;;;;;;5028669;27;20557;-50
2023/07/28 11:55:11;;;;;;;5.77;1.77;;;21.80;73.10;;;;;;5013426;28;20442;-50
2023/07/28 11:57:40;;;;;;;3.87;1.00;;;21.80;72.60;;;;;;4986935;28;20470;-49
2023/07/28 12:00:12;;;;;;;4.73;0.80;;;21.70;72.60;;;;;;4972689;28;20465;-49
2023/07/28 12:02:41;;;;;;;3.57;0.90;;;21.60;69.40;;;;;;4960800;28;20473;-49
2023/07/28 12:05:13;;;;;;;2.80;1.30;;;21.50;67.90;;;;;;4955801;28;20915;-49
2023/07/28 12:07:50;;;;;;;1.50;1.23;;;21.50;70.80;;;;;;4967583;28;20471;-49
2023/07/28 12:10:18;;;;;;;1.63;0.90;;;21.40;69.30;;;;;;4945396;28;20451;-49
2023/07/28 12:13:09;;;;;;;1.60;0.87;;;21.40;69.90;;;;;;4959234;28;20545;-50
2023/07/28 12:15:42;;;;;;;1.80;1.00;;;21.30;68.40;;;;;;4936804;28;20499;-50
2023/07/28 12:18:18;;;;;;;1.53;0.87;;;21.30;68.80;;;;;;4965372;28;20476;-49
2023/07/28 12:20:55;;;;;;;1.20;0.80;;;21.30;67.20;;;;;;4957875;28;20451;-50
2023/07/28 12:23:26;;;;;;;1.07;0.60;;;21.30;67.10;;;;;;4966536;28;20557;-50
2023/07/28 12:25:58;;;;;;;1.70;1.07;;;21.30;67.40;;;;;;4960325;28;20470;-49
2023/07/28 12:28:27;;;;;;;1.10;0.73;;;21.30;66.60;;;;;;4956842;28;21011;-49
2023/07/28 12:30:58;;;;;;;1.30;0.97;;;21.30;65.80;;;;;;4951770;28;20466;-49
2023/07/28 12:33:27;;;;;;;1.40;1.10;;;21.30;66.10;;;;;;4959058;28;20481;-49
2023/07/28 12:35:59;;;;;;;1.10;0.80;;;21.30;65.70;;;;;;4957279;28;20494;-49
2023/07/28 12:38:51;;;;;;;1.20;0.80;;;21.30;65.80;;;;;;4957530;28;20555;-47
2023/07/28 12:41:25;;;;;;;1.10;0.70;;;21.20;65.40;;;;;;4957101;28;20453;-49
2023/07/28 12:44:09;;;;;;;2.40;1.20;;;21.30;65.30;;;;;;4967090;28;20593;-48
2023/07/28 12:46:43;;;;;;;1.10;0.73;;;21.20;65.70;;;;;;4962984;28;20451;-49
2023/07/28 12:49:15;;;;;;;1.80;1.00;;;21.20;66.00;;;;;;5044238;28;20472;-51
2023/07/28 12:51:48;;;;;;;1.60;0.90;;;21.30;66.10;;;;;;5062117;28;20465;-50
2023/07/28 12:54:25;;;;;;;1.40;0.90;;;21.30;65.20;;;;;;4966563;28;20488;-48
2023/07/28 12:56:54;;;;;;;1.10;0.80;;;21.30;65.10;;;;;;4958097;28;20547;-51
2023/07/28 12:59:26;;;;;;;2.00;1.00;;;21.30;65.10;;;;;;4957347;28;20475;-51
2023/07/28 13:01:56;;;;;;;1.97;0.87;;;21.30;65.10;;;;;;4952528;28;20467;-51
2023/07/28 13:04:26;;;;;;;1.10;0.70;;;21.30;65.80;;;;;;4990084;28;20836;-50
2023/07/28 13:06:55;;;;;;;1.33;0.87;;;21.30;65.20;;;;;;4969896;28;20855;-51
2023/07/28 13:09:45;;;;;;;1.37;0.83;;;21.30;65.60;;;;;;4943750;28;20469;-51
2023/07/28 13:12:15;;;;;;;1.70;0.77;;;21.30;65.10;;;;;;4956142;28;20460;-50
2023/07/28 13:14:46;;;;;;;1.10;0.67;;;21.30;65.20;;;;;;4939585;28;20521;-50
2023/07/28 13:17:16;;;;;;;1.73;0.90;;;21.30;65.10;;;;;;4950449;28;20472;-50
2023/07/28 13:19:45;;;;;;;1.30;0.80;;;21.30;65.10;;;;;;4941672;28;20460;-50
2023/07/28 13:22:14;;;;;;;1.60;0.60;;;21.30;65.10;;;;;;4948184;29;20941;-50
2023/07/28 13:24:55;;;;;;;1.40;0.70;;;21.30;65.20;;;;;;4944917;29;20474;-50
2023/07/28 13:27:32;;;;;;;1.20;0.70;;;21.30;65.10;;;;;;4950617;28;20482;-48
2023/07/28 13:30:04;;;;;;;1.10;0.60;;;21.30;65.10;;;;;;4951174;28;20436;-52
2023/07/28 13:32:33;;;;;;;1.27;0.87;;;21.30;65.10;;;;;;4947659;28;20471;-50
2023/07/28 13:35:02;;;;;;;1.23;0.77;;;21.30;65.20;;;;;;4962052;28;20858;-48
2023/07/28 13:37:34;;;;;;;1.20;0.73;;;21.30;65.10;;;;;;4950085;28;20837;-47
2023/07/28 13:40:10;;;;;;;1.30;0.80;;;21.30;65.10;;;;;;4942160;28;20476;-50
2023/07/28 13:42:46;;;;;;;1.10;0.63;;;21.30;65.10;;;;;;4953906;28;20438;-48
2023/07/28 13:45:15;;;;;;;2.90;1.30;;;21.30;65.10;;;;;;4952154;28;20976;-52
2023/07/28 13:47:43;;;;;;;3.70;1.60;;;21.40;66.20;;;;;;4943489;28;20217;-50
2023/07/28 13:50:12;;;;;;;2.97;1.50;;;21.40;68.00;;;;;;4945261;28;20508;-52
2023/07/28 13:52:41;;;;;;;1.20;0.93;;;21.40;68.20;;;;;;4945492;29;20482;-51
2023/07/28 13:55:11;;;;;;;1.93;1.27;;;21.40;66.10;;;;;;4947572;28;20558;-51
2023/07/28 13:57:41;;;;;;;1.30;0.90;;;21.40;66.10;;;;;;4942046;29;20487;-50
2023/07/28 14:00:10;;;;;;;2.13;0.90;;;21.40;65.20;;;;;;4973584;28;20760;-51
2023/07/28 14:02:40;;;;;;;8.27;1.57;;;21.50;77.10;;;;;;4942681;29;20503;-50
2023/07/28 14:05:10;;;;;;;1.70;1.30;;;21.60;84.60;;;;;;4947405;28;20443;-50
2023/07/28 14:07:41;;;;;;;2.80;1.00;;;21.60;83.80;;;;;;4946006;28;20578;-50
2023/07/28 14:10:13;;;;;;;2.57;0.93;;;21.60;81.00;;;;;;4947685;29;20444;-52
2023/07/28 14:12:41;;;;;;;2.50;0.90;;;21.60;77.90;;;;;;4946818;28;20559;-50
2023/07/28 14:15:11;;;;;;;1.70;1.20;;;21.60;76.40;;;;;;4947170;28;20796;-50
2023/07/28 14:17:39;;;;;;;2.57;0.97;;;21.60;74.60;;;;;;4970085;28;20427;-51
2023/07/28 14:20:09;;;;;;;2.27;1.30;;;21.60;76.10;;;;;;4951472;28;20475;-50
2023/07/28 14:22:38;;;;;;;1.83;0.90;;;21.50;73.30;;;;;;4949193;28;21074;-50
2023/07/28 14:25:08;;;;;;;2.40;1.33;;;21.50;73.10;;;;;;4942596;28;20487;-51